Terminal Aerodrome Forecast
Issued by NWS Charleston, WV

Current Version | Previous Version | Graphics & Text | Print | Product List | Glossary On
Versions: 1 2 3 4 5 6 7 8 9 10 11 12 13 14 15 16 17 18 19 20 21 22 23 24 25 26 27
000
FTUS41 KRLX 230901 AAA
TAFPKB
TAF AMD
KPKB 230901Z 2309/2406 17010G19KT P6SM SCT060 SCT080 BKN110
     FM231500 23015G28KT P6SM BKN035
     FM231600 24015G28KT P6SM BKN024
     FM240100 26012G23KT P6SM OVC022=

USA.gov is the U.S. government's official web portal to all federal, state and local government web resources and services.